Date,TemperatureHighF,TemperatureAvgF,TemperatureLowF,DewpointHighF,DewpointAvgF,DewpointLowF,HumidityHigh,HumidityAvg,HumidityLow,PressureMaxIn,PressureMinIn,WindSpeedMaxMPH,WindSpeedAvgMPH,GustSpeedMaxMPH,PrecipitationSumIn
2013-1-1,22.1,19.7,17.6,8.8,7.6,6.1,61,59,56,29.93,29.89,1,0,2,0.00
2013-1-2,28.7,19.2,10.4,19.0,8.4,-0.4,76,63,54,30.11,29.90,6,2,9,0.00
2013-1-3,26.2,13.0,2.0,8.5,-0.1,-4.9,78,57,25,30.14,30.00,4,1,7,0.00
2013-1-4,37.1,27.1,13.3,24.7,19.3,8.3,86,73,56,29.98,29.81,6,1,10,0.00
2013-1-5,41.8,32.2,21.1,25.6,20.5,16.2,83,64,38,30.26,29.83,6,2,10,0.00
2013-1-6,42.3,30.9,21.4,28.7,24.6,16.8,89,78,57,30.22,29.93,5,1,7,0.00
2013-1-7,38.0,29.9,21.7,28.3,22.0,16.1,93,74,44,30.40,29.95,4,1,9,0.00
2013-1-8,45.2,31.6,19.8,28.8,24.5,17.3,93,77,50,30.36,30.26,6,1,7,0.01
2013-1-9,44.0,33.8,21.7,34.8,27.6,20.0,94,79,52,30.40,29.99,7,1,10,0.00
2013-1-10,46.7,40.6,31.5,28.9,24.9,23.1,73,54,41,30.53,30.03,9,3,16,0.01
2013-1-11,38.3,32.6,25.1,35.4,27.2,21.9,96,81,65,30.52,30.23,1,0,3,0.08
2013-1-12,40.7,37.9,35.4,39.9,37.0,34.4,97,97,96,30.22,30.12,2,0,3,0.02
2013-1-13,49.4,43.7,37.4,48.0,43.1,36.6,98,98,95,30.14,29.98,2,0,5,0.01
2013-1-14,60.0,49.7,40.1,51.6,42.5,27.4,97,78,44,30.25,29.85,6,2,12,0.00
2013-1-15,40.5,36.7,31.0,28.6,26.0,24.4,79,65,53,30.31,30.22,3,0,4,0.00
2013-1-16,34.3,32.5,29.8,32.0,29.5,25.5,95,89,72,30.24,29.82,1,0,2,0.35
2013-1-17,41.0,33.5,26.8,33.8,26.8,13.3,95,77,52,30.10,29.83,6,1,14,0.00
2013-1-18,28.6,21.1,16.1,13.2,2.5,-3.2,67,45,29,30.44,30.05,7,2,9,0.00
2013-1-19,47.4,35.3,20.1,31.8,22.1,7.3,74,59,41,30.37,29.87,5,2,12,0.00
2013-1-20,51.9,40.0,27.9,32.6,25.6,11.2,75,57,34,29.91,29.53,9,4,18,0.00
2013-1-21,27.7,24.3,20.1,20.7,11.1,3.1,88,59,42,30.09,29.80,6,2,8,0.02
2013-1-22,24.2,19.3,11.4,19.8,8.5,-1.4,90,65,39,30.08,29.76,7,2,13,0.00
2013-1-23,15.5,10.3,5.2,0.3,-6.9,-12.2,67,46,29,30.14,30.06,8,3,14,0.00
2013-1-24,19.1,10.4,0.0,-5.6,-8.7,-11.6,67,43,26,30.24,30.06,8,3,12,0.00
2013-1-25,23.5,15.5,5.4,7.2,-5.6,-10.6,61,39,26,30.31,30.06,6,2,7,0.00
2013-1-26,23.9,16.5,9.5,10.9,2.1,-6.3,88,56,29,30.23,30.01,5,2,15,0.00
2013-1-27,30.3,20.1,10.2,4.0,1.1,-4.5,69,45,27,30.47,30.23,6,2,10,0.00
2013-1-28,29.5,23.3,16.4,25.0,13.9,2.6,92,69,38,30.45,30.02,2,0,4,0.08
2013-1-29,34.5,29.7,24.7,31.6,27.1,22.4,94,90,84,30.19,30.03,1,0,3,0.01
2013-1-30,59.7,46.8,33.7,56.6,44.9,31.9,98,93,88,30.15,29.44,5,2,13,0.05
2013-1-31,60.9,46.9,29.6,58.5,37.8,16.9,95,72,41,29.57,28.94,12,6,19,0.46
2013-2-1,32.3,27.8,21.6,19.0,9.3,4.9,65,46,35,30.08,29.58,8,4,14,0.00
2013-2-2,29.5,23.7,15.4,12.2,7.5,3.4,65,50,39,30.24,30.04,4,2,9,0.00
2013-2-3,25.8,23.9,18.8,22.3,19.5,12.1,92,84,56,30.05,29.73,4,1,7,0.00
2013-2-4,28.6,23.6,19.7,21.0,11.5,5.5,92,62,39,29.93,29.72,9,4,14,0.00
2013-2-5,30.2,24.5,19.9,22.1,13.1,6.8,85,62,48,30.02,29.93,4,1,5,0.00
2013-2-6,37.9,29.3,23.6,25.2,18.3,5.3,90,66,39,30.30,29.92,7,2,13,0.01
2013-2-7,30.0,23.3,15.1,6.8,3.2,-0.4,65,43,29,30.53,30.30,4,1,9,0.00
2013-2-8,26.8,22.5,17.4,22.6,17.9,6.0,93,83,43,30.49,29.65,6,2,11,0.64
2013-2-9,21.5,18.2,14.5,18.5,14.9,7.4,93,87,73,30.20,29.61,7,5,12,0.54
2013-2-10,39.6,21.9,1.7,19.6,9.2,-2.5,82,60,32,30.39,30.20,5,1,8,0.00
2013-2-11,34.6,28.2,15.7,33.1,23.8,7.3,95,84,60,30.35,29.61,1,0,1,0.15
2013-2-12,44.1,37.9,32.8,34.7,29.3,25.8,97,72,54,29.87,29.60,9,4,12,0.00
2013-2-13,43.4,34.2,25.3,26.6,24.6,21.7,88,69,47,29.86,29.70,5,1,8,0.00
2013-2-14,45.4,35.7,29.1,26.3,23.0,20.6,78,62,38,29.98,29.72,4,1,9,0.00
2013-2-15,51.8,38.1,27.2,34.3,29.6,22.5,93,73,49,29.99,29.89,5,1,8,0.00
2013-2-16,38.4,34.1,29.2,31.6,26.7,17.6,93,75,55,29.95,29.73,3,1,6,0.01
2013-2-17,29.1,21.4,17.0,19.3,10.5,0.9,89,64,44,29.73,29.40,9,5,21,0.08
2013-2-18,31.1,22.6,14.1,5.3,1.1,-3.4,56,40,22,30.15,29.68,9,5,17,0.00
2013-2-19,47.0,35.5,22.0,41.5,23.1,3.3,95,62,43,30.17,29.58,4,2,7,0.18
2013-2-20,39.3,31.9,26.1,38.0,20.7,11.3,96,65,43,29.77,29.54,9,5,23,0.00
2013-2-21,32.8,27.0,23.7,16.3,13.7,10.2,70,57,43,30.18,29.76,7,4,12,0.00
2013-2-22,40.6,32.5,22.7,25.6,20.3,16.7,81,62,42,30.39,30.24,3,1,7,0.00
2013-2-23,38.3,34.7,29.1,32.1,29.3,24.0,94,81,70,30.32,29.92,5,1,6,0.06
2013-2-24,34.0,32.9,30.9,32.9,31.7,29.6,96,95,94,29.92,29.70,2,0,6,0.47
2013-2-25,38.9,34.4,30.4,35.0,31.8,28.6,95,90,79,30.23,29.90,2,0,2,0.00
2013-2-26,42.3,35.1,28.9,36.0,29.8,25.9,93,82,58,30.33,30.16,4,1,5,0.00
2013-2-27,40.8,37.6,34.0,39.5,35.9,30.3,96,94,82,30.16,29.57,7,2,16,1.11
2013-2-28,45.8,37.9,33.3,38.3,34.7,32.0,96,89,73,29.63,29.52,2,0,4,0.00
2013-3-1,40.2,37.6,31.0,35.5,30.1,28.1,94,74,65,29.67,29.53,12,1,12,0.00
2013-3-2,41.4,36.8,31.5,30.7,27.8,25.6,80,70,61,29.67,29.61,11,1,11,0.00
2013-3-3,38.9,34.7,31.5,32.9,28.7,25.0,90,79,72,29.64,29.56,10,2,10,0.00
2013-3-4,38.9,33.8,29.3,28.3,24.6,21.3,81,69,56,29.75,29.58,22,4,22,0.00
2013-3-5,44.6,36.2,30.8,32.1,27.1,22.9,88,70,53,30.07,29.74,14,2,14,0.00
2013-3-6,39.1,35.8,33.0,35.1,32.9,31.3,95,89,77,30.11,30.04,22,2,22,0.11
2013-3-7,33.4,31.7,30.3,31.6,29.5,27.1,95,91,84,30.09,30.00,14,2,17,0.05
2013-3-8,37.0,32.3,29.4,33.6,29.5,25.5,96,90,70,30.16,29.95,14,1,14,0.65
2013-3-9,39.9,31.3,28.2,29.6,24.5,21.8,90,77,50,30.35,30.15,7,0,7,0.00
2013-3-10,46.0,35.1,24.7,32.0,28.8,21.8,91,79,57,30.41,30.30,7,1,9,0.00
2013-3-11,52.4,42.1,34.3,40.0,35.0,30.8,93,77,51,30.32,30.14,12,2,12,0.00
2013-3-12,55.7,49.0,41.9,52.9,47.0,40.0,96,93,82,30.15,29.71,18,2,18,0.39
2013-3-13,51.7,43.1,33.5,50.6,31.3,19.8,96,66,32,29.78,29.69,16,3,18,0.00
2013-3-14,35.2,30.6,22.3,24.9,16.1,7.3,74,55,40,29.83,29.70,21,5,22,0.00
2013-3-15,40.7,29.3,18.9,29.0,13.1,4.0,82,52,26,29.87,29.63,20,6,20,0.00
2013-3-16,39.5,35.1,30.8,16.9,12.7,8.2,51,40,30,29.88,29.76,14,2,14,0.00
2013-3-17,36.9,29.9,21.7,16.8,10.5,3.3,78,46,26,30.32,29.88,20,4,20,0.00
2013-3-18,38.4,28.1,16.1,26.8,8.9,-1.5,91,47,18,30.46,30.24,10,3,10,0.04
2013-3-19,33.7,31.6,26.9,32.4,30.2,24.7,96,95,91,30.24,29.62,15,4,15,1.02
2013-3-20,38.2,30.1,24.3,25.3,23.0,20.2,94,76,51,29.81,29.70,22,5,22,0.00
2013-3-21,37.5,29.1,19.7,28.5,21.3,12.2,91,75,37,29.81,29.61,9,2,9,0.00
2013-3-22,40.9,33.0,27.0,25.6,20.5,16.0,92,61,41,29.74,29.61,20,5,20,0.00
2013-3-23,44.1,34.5,26.2,23.6,19.9,16.1,80,57,33,29.78,29.63,28,8,28,0.00
2013-3-24,46.7,38.0,31.3,27.1,23.5,20.4,78,57,40,29.81,29.73,15,4,15,0.00
2013-3-25,42.9,36.5,30.5,32.8,29.3,24.8,82,75,65,29.77,29.53,14,2,14,0.00
2013-3-26,43.2,37.4,36.7,29.6,27.4,25.5,75,67,50,29.67,29.54,12,2,12,0.00
2013-3-27,49.5,45.3,40.6,32.4,28.0,24.2,72,52,37,29.87,29.78,12,4,12,0.00
2013-3-28,48.5,42.0,35.8,35.4,33.5,29.1,92,73,47,30.01,29.87,12,2,12,0.00
2013-3-29,56.1,44.5,30.8,35.3,31.8,27.1,91,63,35,30.05,29.96,15,3,15,0.00
2013-3-30,56.4,44.8,32.9,33.3,23.5,10.1,86,49,17,30.09,30.00,14,3,14,0.00
2013-3-31,60.2,44.0,25.6,40.1,26.0,20.1,84,54,22,30.12,29.74,16,4,16,0.04
2013-4-1,60.9,46.0,34.5,44.0,35.9,12.5,96,71,37,29.78,29.50,29,6,29,0.17
2013-4-2,39.2,34.5,29.8,16.4,12.7,8.5,50,41,29,29.93,29.78,28,10,28,0.00
2013-4-3,45.7,36.3,29.3,16.9,12.8,7.0,54,39,22,30.16,29.92,26,10,26,0.00
2013-4-4,56.6,41.5,26.9,25.2,16.2,8.0,65,39,17,30.30,30.04,16,5,16,0.00
2013-4-5,60.7,45.6,34.9,30.0,26.1,18.5,77,50,20,30.04,29.63,20,5,20,0.00
2013-4-6,46.4,37.7,28.0,26.2,12.6,0.2,60,39,15,30.33,29.88,22,3,24,0.00
2013-4-7,56.7,41.1,24.0,39.5,25.3,11.6,79,56,28,30.33,29.99,11,3,22,0.00
2013-4-8,66.7,51.5,41.0,42.4,38.5,32.9,94,65,29,30.09,29.94,7,1,12,0.00
2013-4-9,69.4,55.3,45.0,51.7,44.0,39.5,95,68,42,30.08,29.86,12,2,22,0.04
2013-4-10,63.2,51.1,45.1,49.3,45.8,41.8,96,83,59,30.03,29.85,6,1,9,0.24
2013-4-11,51.9,46.3,39.8,47.5,38.9,26.0,97,78,44,30.15,29.83,6,1,10,0.08
2013-4-12,40.0,37.5,35.3,37.3,35.0,31.2,96,91,75,30.17,29.80,10,2,18,0.44
2013-4-13,51.9,42.9,35.3,41.4,37.1,33.7,96,81,55,29.94,29.77,8,1,12,0.05
2013-4-14,51.6,45.3,35.2,40.9,32.9,26.1,92,64,40,30.22,29.91,12,2,20,0.00
2013-4-15,58.9,44.1,29.3,38.6,32.5,26.6,92,67,36,30.39,30.22,9,1,14,0.00
2013-4-16,67.3,51.9,35.5,51.2,42.1,33.8,95,72,44,30.40,30.05,11,3,21,0.00
2013-4-17,66.7,57.5,46.9,53.0,36.8,27.1,90,50,24,30.33,30.05,10,2,15,0.00
2013-4-18,63.5,50.5,37.2,44.5,33.6,27.3,82,55,32,30.43,30.14,10,3,20,0.00
2013-4-19,75.0,63.0,51.8,62.5,56.9,44.5,97,81,58,30.14,29.63,13,3,23,0.00
2013-4-20,67.1,53.0,43.3,62.7,40.8,23.1,95,66,37,30.21,29.59,13,4,21,0.45
2013-4-21,53.2,42.2,32.9,29.0,21.9,16.3,81,47,24,30.68,30.22,11,2,17,0.00
2013-4-22,50.8,41.0,29.3,34.2,28.9,20.1,93,66,31,30.76,30.60,12,2,20,0.00
2013-4-23,41.3,39.6,36.5,40.0,36.7,30.5,96,90,75,30.60,30.14,5,1,13,0.03
2013-4-24,77.0,56.7,40.6,51.5,44.0,36.3,96,68,24,30.13,29.78,9,2,20,0.01
2013-4-25,64.3,54.8,41.9,52.1,35.4,22.8,93,53,22,30.27,29.82,10,3,17,0.03
2013-4-26,59.9,48.7,35.0,39.4,33.3,28.9,83,58,35,30.43,30.27,10,2,14,0.00
2013-4-27,64.3,51.1,34.6,39.4,35.5,32.6,94,60,33,30.42,30.28,8,1,14,0.00
2013-4-28,69.4,53.7,36.0,41.7,35.5,29.8,93,55,25,30.34,30.21,11,2,17,0.00
2013-4-29,71.3,57.1,43.0,48.3,36.7,27.4,85,50,27,30.27,30.17,9,2,14,0.00
2013-4-30,68.8,56.5,43.3,37.2,28.8,16.6,76,40,17,30.36,30.25,8,1,13,0.00
2013-5-1,69.2,53.9,35.2,37.5,33.0,28.4,88,51,24,30.47,30.36,9,1,14,0.00
2013-5-2,78.6,55.2,38.9,45.4,39.0,35.1,91,59,22,30.49,30.33,11,1,20,0.00
2013-5-3,61.7,50.8,41.5,44.8,40.7,37.4,88,70,50,30.52,30.38,9,1,14,0.00
2013-5-4,62.3,49.2,36.8,45.3,36.6,16.6,95,68,18,30.38,30.29,9,2,16,0.00
2013-5-5,60.4,47.6,33.7,40.7,37.5,32.1,96,71,45,30.34,30.25,9,1,15,0.00
2013-5-6,70.7,51.2,33.2,49.9,41.4,31.4,96,74,32,30.29,30.14,8,1,12,0.00
2013-5-7,77.5,62.1,42.3,58.6,50.6,40.9,96,70,40,30.17,30.08,8,2,13,0.00
2013-5-8,73.2,62.2,51.1,62.7,57.3,49.4,96,85,65,30.19,30.04,10,2,16,0.20
2013-5-9,67.1,59.5,56.8,61.2,57.8,55.6,98,94,77,30.05,29.88,4,0,7,0.41
2013-5-10,79.3,64.9,53.2,60.6,56.5,52.7,99,78,42,29.95,29.89,7,1,12,0.01
2013-5-11,70.3,63.5,58.2,62.5,59.0,54.6,96,86,73,29.90,29.69,9,2,17,0.09
2013-5-12,70.1,60.2,48.3,60.4,51.1,30.0,96,75,37,29.81,29.56,11,1,21,0.11
2013-5-13,58.0,47.8,35.4,35.8,31.3,26.5,92,56,32,30.03,29.81,10,2,17,0.00
2013-5-14,58.7,48.1,34.9,36.0,31.7,26.7,89,56,33,30.05,29.97,8,2,18,0.00
2013-5-15,66.6,50.6,32.6,51.8,39.7,29.9,95,71,30,30.05,29.67,8,1,15,0.03
2013-5-16,80.5,65.5,47.4,50.0,41.3,30.5,97,51,20,29.81,29.63,16,3,30,0.01
2013-5-17,69.5,58.8,47.1,43.9,41.0,36.1,84,54,30,30.21,29.81,8,2,15,0.00
2013-5-18,73.2,57.8,40.6,49.9,42.9,34.6,94,63,27,30.30,30.21,7,1,12,0.00
2013-5-19,71.5,56.1,46.1,54.4,50.0,44.0,96,82,46,30.34,30.21,8,1,12,0.10
2013-5-20,81.5,66.8,55.3,67.7,60.6,54.2,98,82,57,30.21,29.91,9,1,16,0.04
2013-5-21,80.5,61.3,51.1,67.5,57.1,48.8,97,87,62,30.02,29.86,8,1,13,0.01
2013-5-22,67.5,56.0,49.7,62.3,53.6,48.3,97,92,81,30.07,29.89,6,1,12,0.54
2013-5-23,74.5,63.3,53.6,69.8,60.8,52.4,99,92,81,29.93,29.80,8,1,17,0.16
2013-5-24,71.7,62.5,47.9,66.6,59.9,46.6,98,91,78,29.83,29.65,7,1,12,0.29
2013-5-25,50.4,46.3,40.4,49.6,45.2,38.4,97,96,92,29.82,29.71,10,2,20,0.41
2013-5-26,56.7,47.3,39.1,42.7,39.7,37.3,95,76,52,30.10,29.72,10,2,18,0.04
2013-5-27,71.4,55.5,38.2,45.1,39.2,32.6,97,61,25,30.17,30.07,11,2,17,0.00
2013-5-28,73.5,58.4,40.5,52.5,44.7,37.0,96,66,30,30.23,30.15,7,1,12,0.00
2013-5-29,69.3,62.0,55.4,65.0,59.6,51.0,97,92,83,30.18,29.98,7,0,9,0.80
2013-5-30,88.2,73.6,61.7,69.6,65.4,61.1,99,79,45,30.08,29.99,9,1,16,0.01
2013-5-31,94.1,78.8,61.2,71.9,65.4,60.3,98,68,37,30.08,29.92,8,1,13,0.00
2013-6-1,94.0,80.3,65.8,69.8,65.7,60.6,89,64,34,29.96,29.83,7,1,14,0.00
2013-6-2,86.4,79.6,68.6,70.4,67.7,64.3,90,69,56,29.87,29.78,8,4,16,0.00
2013-6-3,78.1,68.5,58.1,68.2,62.3,45.7,96,82,57,29.84,29.74,6,1,11,0.54
2013-6-4,71.0,60.3,47.3,48.9,45.3,41.6,87,59,39,30.09,29.82,9,2,16,0.00
2013-6-5,75.2,62.0,47.4,55.4,48.0,42.0,93,64,32,30.19,30.08,7,1,12,0.00
2013-6-6,74.3,63.7,51.6,55.5,50.9,47.1,90,65,43,30.18,30.09,7,1,12,0.00
2013-6-7,57.6,55.1,52.8,56.1,53.9,52.0,97,96,90,30.10,29.82,5,0,10,1.63
2013-6-8,77.4,62.2,52.6,66.0,57.7,51.8,98,86,62,30.00,29.63,7,1,12,0.76
2013-6-9,78.9,66.0,52.8,59.3,56.0,51.6,98,73,44,30.16,30.00,8,1,14,0.00
2013-6-10,68.9,61.5,53.2,60.0,56.7,51.5,97,85,66,30.20,30.02,6,1,12,0.52
2013-6-11,61.9,57.5,55.3,58.2,56.1,54.5,98,95,86,30.02,29.58,7,1,12,0.97
2013-6-12,69.3,61.9,55.5,58.3,55.2,52.8,98,80,60,29.81,29.56,11,2,24,0.06
2013-6-13,66.8,57.0,51.2,59.4,53.9,49.8,97,90,67,29.81,29.68,5,0,8,0.59
2013-6-14,74.3,59.8,51.5,60.7,54.4,50.5,98,84,48,29.77,29.65,7,1,12,0.67
2013-6-15,78.3,66.0,55.0,54.8,49.2,40.6,87,59,28,29.93,29.77,8,1,13,0.00
2013-6-16,76.4,64.9,50.3,61.5,54.9,48.5,94,72,44,29.93,29.70,6,1,10,0.00
2013-6-17,84.7,67.7,56.0,67.5,60.5,54.5,97,80,42,29.90,29.77,7,1,14,0.28
2013-6-18,73.8,62.3,57.3,65.0,59.7,56.4,99,92,70,29.94,29.88,5,0,12,0.06
2013-6-19,63.6,57.9,56.3,57.5,56.4,54.8,98,95,75,29.99,29.91,3,0,6,0.09
2013-6-20,79.9,71.6,61.2,57.6,54.0,48.3,84,57,35,30.23,30.19,4,1,8,0.00
2013-6-21,85.2,70.6,56.1,62.8,57.9,53.1,92,68,34,30.24,30.18,6,1,10,0.00
2013-6-22,85.4,72.8,59.9,66.7,61.3,57.6,93,70,43,30.21,30.09,7,1,13,0.00
2013-6-23,90.8,77.3,64.2,73.2,66.0,57.9,81,69,53,30.15,29.97,7,1,14,0.00
2013-6-24,92.6,79.8,69.5,75.4,70.2,65.3,94,75,51,30.01,29.85,8,1,12,0.02
2013-6-25,91.0,78.9,67.8,73.1,68.8,65.2,95,73,47,29.92,29.71,7,1,13,0.01
2013-6-26,83.1,73.8,68.5,74.8,69.8,66.2,96,88,63,29.84,29.71,5,0,7,0.62
2013-6-27,73.3,66.0,61.2,69.0,64.2,60.3,98,94,83,29.87,29.75,4,1,6,0.12
2013-6-28,82.6,70.1,58.7,73.5,66.7,57.9,99,90,71,29.76,29.47,9,1,14,0.20
2013-6-29,84.4,75.6,70.2,71.3,68.9,66.8,96,81,56,29.71,29.50,6,2,13,0.00
2013-6-30,87.0,76.5,66.8,73.9,69.7,65.6,97,81,58,29.92,29.71,6,1,13,0.00
2013-7-1,80.3,74.0,71.1,75.2,71.8,69.4,98,93,80,30.07,29.92,4,0,8,0.83
2013-7-2,83.3,72.2,61.2,75.0,69.3,60.1,98,91,73,30.20,30.06,6,1,10,0.04
2013-7-3,88.0,74.1,60.8,75.9,68.5,59.7,97,84,61,30.20,30.12,7,1,13,0.00
2013-7-4,92.7,81.8,70.4,75.9,73.1,69.2,97,77,54,30.19,30.08,8,1,13,0.00
2013-7-5,93.6,83.7,74.8,76.3,73.8,71.8,91,74,52,30.14,30.01,8,1,14,0.00
2013-7-6,90.2,81.3,71.9,74.7,71.4,64.2,93,73,50,30.06,29.97,9,1,13,0.00
2013-7-7,92.4,77.5,65.2,78.7,70.7,63.1,95,81,54,30.01,29.89,5,0,8,0.01
2013-7-8,85.3,75.8,65.9,76.5,71.4,64.7,97,87,68,30.06,29.89,6,1,12,0.14
2013-7-9,72.9,68.1,64.5,68.8,65.8,63.2,97,93,85,30.10,30.04,3,0,5,0.00
2013-7-10,84.8,73.3,66.3,76.2,70.3,64.2,98,91,72,30.07,29.78,7,1,15,0.06
2013-7-11,81.0,74.9,70.0,76.3,72.6,68.5,98,93,79,29.92,29.76,4,0,6,0.12
2013-7-12,78.5,70.8,65.0,68.6,61.7,56.4,95,74,48,30.19,29.92,6,1,12,0.00
2013-7-13,79.3,71.0,64.3,71.1,65.7,59.9,96,83,74,30.30,30.19,5,0,8,0.01
2013-7-14,90.5,77.9,67.6,76.8,71.5,66.4,98,82,54,30.29,30.19,4,0,9,0.00
2013-7-15,90.6,79.5,69.1,76.5,72.2,68.0,98,80,55,30.19,30.08,6,0,10,0.01
2013-7-16,93.0,80.0,66.8,73.0,69.4,65.0,95,73,44,30.15,30.09,5,1,13,0.00
2013-7-17,95.3,81.7,68.3,75.9,71.2,66.7,96,73,45,30.17,29.97,5,0,9,0.00
2013-7-18,94.8,81.8,73.9,75.6,72.1,67.3,92,74,46,30.00,29.93,7,1,10,0.00
2013-7-19,96.1,84.2,71.1,78.1,73.7,68.8,95,73,48,29.93,29.70,9,2,20,0.00
2013-7-20,91.3,81.9,72.2,78.3,74.0,64.6,94,78,55,29.80,29.64,7,1,12,0.02
2013-7-21,82.5,74.3,65.8,68.1,64.9,62.2,92,73,55,29.98,29.80,4,1,8,0.00
2013-7-22,84.3,72.5,64.3,70.2,66.5,62.6,98,83,57,30.01,29.88,6,1,9,0.00
2013-7-23,79.0,71.7,68.7,75.5,70.4,66.2,99,96,86,29.88,29.53,8,0,20,1.94
2013-7-24,83.2,75.0,64.6,73.1,67.9,53.6,99,80,56,29.96,29.57,7,1,13,0.01
2013-7-25,64.4,60.0,57.8,58.8,54.4,48.6,98,82,67,30.10,29.95,4,0,8,1.34
2013-7-26,71.7,64.2,59.0,69.6,62.7,58.4,98,95,89,30.07,29.94,6,1,12,0.17
2013-7-27,84.0,70.8,63.6,70.5,64.2,60.8,94,82,49,30.04,29.98,5,0,10,0.01
2013-7-28,83.1,71.1,62.7,72.2,66.7,61.1,97,87,65,30.02,29.95,5,1,8,0.01
2013-7-29,84.8,72.8,66.3,73.7,68.2,65.0,97,87,61,30.03,29.94,6,1,17,0.05
2013-7-30,80.9,70.4,59.6,67.0,61.2,55.7,98,75,44,30.09,30.02,8,1,13,0.01
2013-7-31,83.0,70.2,58.2,67.0,60.5,56.1,96,74,44,30.13,30.03,6,0,8,0.00
2013-8-1,80.9,69.0,60.0,66.2,63.0,58.9,97,83,56,30.04,29.87,10,1,10,0.07
2013-8-2,81.0,70.2,63.7,69.4,64.3,58.4,98,83,49,29.88,29.78,8,1,15,1.14
2013-8-3,78.5,68.6,61.7,66.1,63.0,59.4,97,83,57,29.85,29.76,8,1,13,0.00
2013-8-4,78.5,66.5,55.4,62.4,57.8,54.0,96,76,47,29.89,29.76,6,1,10,0.01
2013-8-5,74.8,65.3,54.8,54.4,49.7,44.1,88,60,36,29.97,29.88,9,1,20,0.00
2013-8-6,80.1,63.7,47.9,56.7,51.9,46.3,96,69,39,30.14,29.97,6,1,9,0.00
2013-8-7,80.5,66.7,52.1,61.9,55.0,50.7,97,70,38,30.18,30.10,7,1,12,0.00
2013-8-8,81.3,71.7,64.7,71.7,66.5,57.2,95,84,71,30.12,30.00,6,1,9,0.03
2013-8-9,74.6,72.2,70.6,74.0,70.8,68.7,98,95,91,30.01,29.74,9,1,18,1.11
2013-8-10,81.3,71.6,61.0,70.6,63.5,55.1,99,78,50,30.01,29.78,10,1,20,0.01
2013-8-11,79.3,65.5,51.6,63.1,56.0,50.3,97,75,43,30.07,29.99,6,1,12,0.00
2013-8-12,82.6,68.3,56.9,64.8,59.0,54.0,98,76,42,30.02,29.91,6,1,10,0.00
2013-8-13,74.8,67.4,62.5,68.6,64.3,60.7,96,90,70,29.92,29.68,5,0,8,0.03
2013-8-14,73.4,65.2,57.5,62.9,55.7,51.9,98,73,50,29.96,29.66,9,2,18,0.01
2013-8-15,76.8,63.1,50.4,58.9,52.9,48.9,96,73,41,30.10,29.96,9,1,13,0.00
2013-8-16,78.8,64.0,51.0,63.4,55.6,49.9,97,77,42,30.19,30.10,6,1,13,0.00
2013-8-17,81.2,66.4,53.2,62.7,58.1,51.8,97,77,45,30.27,30.19,6,0,9,0.01
2013-8-18,78.2,67.2,56.0,67.8,61.3,54.6,97,83,56,30.27,30.07,3,0,7,0.00
2013-8-19,80.6,69.0,56.6,67.3,61.8,55.5,97,79,53,30.07,29.94,7,1,12,0.00
2013-8-20,86.0,72.6,61.2,69.2,63.2,59.1,94,75,43,30.08,29.97,5,0,9,0.00
2013-8-21,88.3,72.7,58.5,70.2,64.3,57.3,97,78,47,30.14,30.01,4,0,8,0.00
2013-8-22,87.3,74.4,63.0,72.4,67.3,61.8,96,80,50,30.02,29.81,6,1,12,0.01
2013-8-23,79.9,71.4,61.8,68.9,60.1,51.9,94,69,43,30.12,29.81,6,1,12,0.00
2013-8-24,78.7,64.6,54.1,57.9,51.2,44.4,92,66,31,30.33,30.13,4,0,8,0.00
2013-8-25,82.8,65.6,49.6,59.7,53.7,47.8,96,70,32,30.36,30.18,7,0,10,0.00
2013-8-26,79.5,69.9,62.6,69.3,63.3,56.4,91,80,62,30.18,29.86,7,1,15,0.01
2013-8-27,86.0,74.1,65.5,70.6,67.4,63.4,96,81,52,29.89,29.82,5,0,8,0.00
2013-8-28,85.8,71.4,60.3,69.1,64.5,58.9,98,81,54,29.98,29.84,6,1,9,0.00
2013-8-29,66.0,64.4,60.5,64.2,61.6,58.4,95,90,86,30.07,29.94,5,1,10,0.00
2013-8-30,83.8,69.2,58.8,69.5,63.5,57.3,96,83,60,30.03,29.81,7,0,9,0.00
2013-8-31,80.3,73.1,67.5,74.4,70.3,66.0,98,91,79,29.82,29.77,4,0,10,0.06
2013-9-1,80.5,73.6,69.2,74.4,71.0,67.4,97,92,80,29.88,29.78,4,1,10,0.02
2013-9-2,78.5,73.7,71.0,75.9,71.9,69.8,98,94,87,29.86,29.70,4,0,9,0.64
2013-9-3,80.0,71.7,60.9,72.3,68.3,58.6,98,90,70,29.80,29.68,6,0,12,0.18
2013-9-4,79.8,66.9,57.1,61.2,57.7,55.8,96,75,46,29.91,29.79,8,1,14,0.01
2013-9-5,69.7,61.2,50.0,61.6,53.0,42.8,97,77,43,30.14,29.85,6,0,10,0.03
2013-9-6,70.0,55.3,41.6,50.6,44.1,37.6,95,70,35,30.24,30.09,5,1,9,0.00
2013-9-7,79.7,61.6,46.9,60.3,52.2,45.0,94,75,38,30.09,29.85,6,1,10,0.01
2013-9-8,71.7,62.6,49.7,62.5,53.3,41.1,97,74,40,30.10,29.74,8,1,17,0.05
2013-9-9,69.5,56.0,40.5,51.6,45.3,38.6,96,71,41,30.23,30.09,6,1,10,0.00
2013-9-10,74.9,64.8,53.1,70.8,61.9,49.6,97,90,84,30.15,30.02,6,1,12,0.10
2013-9-11,95.0,79.9,68.1,78.1,72.4,66.3,99,80,53,30.06,29.92,8,1,17,0.01
2013-9-12,87.1,76.4,67.1,75.1,69.8,65.3,97,81,60,29.95,29.66,9,1,16,2.21
2013-9-13,78.1,67.1,58.7,69.2,64.5,54.8,99,92,69,29.75,29.56,6,1,12,0.16
2013-9-14,67.3,59.1,49.9,55.8,53.2,48.2,94,81,64,30.05,29.75,6,1,12,0.00
2013-9-15,71.2,57.3,47.0,55.0,50.0,45.9,97,79,46,30.16,30.04,6,1,9,0.00
2013-9-16,67.3,56.3,47.6,56.6,50.5,38.1,96,82,62,30.25,30.00,6,1,12,0.01
2013-9-17,63.6,50.1,38.6,48.8,40.5,35.9,95,72,43,30.42,30.25,6,1,12,0.00
2013-9-18,74.5,54.5,38.1,54.1,45.1,37.1,98,75,32,30.32,30.13,6,0,8,0.01
2013-9-19,79.7,59.9,44.1,61.7,51.6,43.0,98,78,40,30.14,30.02,5,0,6,0.00
2013-9-20,80.9,61.6,46.6,61.1,53.6,45.5,98,79,38,30.08,29.99,4,0,5,0.02
2013-9-21,74.4,63.1,49.3,65.5,58.6,47.9,98,86,64,30.02,29.71,8,2,20,0.01
2013-9-22,69.7,63.4,51.6,66.9,57.2,45.9,98,81,55,29.83,29.59,8,2,15,0.62
2013-9-23,61.7,51.9,43.1,46.5,42.9,40.1,90,72,53,30.00,29.83,8,2,15,0.00
2013-9-24,66.8,52.0,39.9,47.2,42.9,38.0,95,74,44,29.99,29.81,9,1,13,0.00
2013-9-25,67.4,53.8,42.0,56.2,47.6,40.7,96,81,56,29.98,29.87,5,0,10,0.00
2013-9-26,67.5,57.1,51.1,54.0,49.9,46.6,94,78,52,30.13,29.98,3,0,8,0.00
2013-9-27,66.8,57.4,48.9,56.2,52.4,47.5,95,84,65,30.26,30.13,4,0,7,0.00
2013-9-28,73.2,57.6,47.5,57.2,51.5,46.1,97,82,51,30.33,30.25,5,0,8,0.01
2013-9-29,69.7,53.6,44.5,53.7,48.1,42.9,98,84,43,30.26,30.12,5,0,9,0.01
2013-9-30,68.9,54.3,44.5,55.0,49.0,43.1,98,85,49,30.13,29.96,5,0,8,0.00
2013-10-1,76.4,58.4,44.5,60.5,51.3,43.4,98,81,45,29.97,29.84,6,0,12,0.01
2013-10-2,79.7,63.0,48.9,63.1,56.6,47.9,99,82,54,29.95,29.82,9,1,15,0.01
2013-10-3,77.0,60.8,49.7,58.2,52.8,47.1,98,78,38,30.08,29.95,4,0,7,0.01
2013-10-4,61.5,55.3,48.4,59.3,53.8,47.0,97,94,87,30.09,30.03,2,0,4,0.17
2013-10-5,67.6,60.5,55.2,60.9,57.4,54.3,98,90,73,30.12,30.05,3,0,5,0.03
2013-10-6,58.6,55.5,52.7,57.1,54.7,51.6,98,97,93,30.23,30.11,4,0,9,0.31
2013-10-7,76.6,64.5,55.8,70.4,61.8,55.2,100,92,75,30.13,29.80,11,2,20,0.05
2013-10-8,65.2,55.3,43.0,55.4,46.2,40.3,91,74,43,30.38,29.90,7,1,12,0.00
2013-10-9,62.4,49.1,40.2,47.8,42.8,38.6,95,81,50,30.48,30.37,6,0,10,0.00
2013-10-10,61.2,50.5,40.6,53.9,47.2,39.3,98,89,71,30.37,30.19,4,0,7,0.00
2013-10-11,71.3,55.5,46.0,54.8,47.4,36.0,97,78,28,30.18,30.09,5,0,9,0.01
2013-10-12,58.0,52.7,46.6,55.2,50.7,45.2,98,93,86,30.40,30.15,4,0,9,0.00
2013-10-13,60.7,50.6,38.8,50.7,46.3,37.5,98,86,63,30.45,30.38,6,0,9,0.01
2013-10-14,66.7,48.4,32.6,48.6,41.1,31.6,98,79,42,30.41,30.25,5,0,7,0.00
2013-10-15,65.3,55.1,47.6,55.8,50.7,45.6,96,86,69,30.26,30.18,5,0,7,0.00
2013-10-16,60.4,54.3,49.0,54.4,51.6,47.9,98,91,73,30.18,29.91,3,0,6,0.01
2013-10-17,74.5,59.3,48.6,60.4,54.2,47.8,99,85,52,29.92,29.71,8,1,14,0.01
2013-10-18,65.8,58.8,43.5,60.3,51.2,40.8,98,78,49,29.90,29.60,11,2,20,0.07
2013-10-19,67.6,52.8,38.5,47.7,42.6,36.8,96,72,40,29.97,29.74,6,1,10,0.00
2013-10-20,60.7,52.3,39.7,49.4,40.3,33.6,96,66,38,30.01,29.68,11,2,20,0.01
2013-10-21,67.5,49.7,33.4,44.4,39.2,31.9,96,71,38,30.11,29.99,9,1,14,0.00
2013-10-22,64.8,51.9,39.8,52.5,44.6,37.6,97,78,57,29.99,29.70,8,1,14,0.00
2013-10-23,51.1,43.9,33.9,38.5,35.3,32.2,95,73,50,29.80,29.59,5,0,7,0.00
2013-10-24,52.6,44.1,35.8,36.7,31.0,25.9,86,62,38,29.89,29.64,10,2,18,0.00
2013-10-25,49.6,39.3,29.9,35.3,29.5,26.1,95,70,43,30.15,29.89,9,1,15,0.00
2013-10-26,55.4,41.4,27.5,35.7,29.6,25.5,95,67,33,30.15,29.88,7,1,15,0.00
2013-10-27,53.2,46.2,38.1,40.7,35.3,29.6,95,68,42,30.06,29.80,11,2,21,0.04
2013-10-28,57.7,43.5,31.4,36.3,31.3,25.1,92,65,38,30.35,30.06,13,2,21,0.00
2013-10-29,49.2,35.9,28.6,28.3,24.0,19.2,86,65,31,30.45,30.35,6,0,9,0.00
2013-10-30,50.8,37.4,28.9,42.4,33.8,25.5,95,87,70,30.37,30.19,4,0,5,0.02
2013-10-31,60.2,45.3,30.2,58.2,43.9,28.9,97,95,88,30.25,29.78,7,1,12,0.23
2013-11-1,69.2,63.3,54.9,63.0,58.0,51.9,97,83,67,29.78,29.44,14,3,28,0.08
2013-11-2,66.4,54.3,44.7,52.1,45.7,41.9,96,75,43,29.73,29.58,6,0,9,0.01
2013-11-3,49.9,41.0,30.8,46.5,28.3,14.5,88,63,33,30.42,29.72,6,2,12,0.00
2013-11-4,43.0,31.9,24.1,20.2,18.1,14.4,84,59,32,30.71,30.42,5,0,9,0.00
2013-11-5,51.0,35.8,23.3,32.6,26.6,19.5,89,71,44,30.72,30.51,6,0,9,0.00
2013-11-6,61.1,48.9,36.8,48.8,40.8,32.1,89,75,52,30.51,30.03,8,1,15,0.00
2013-11-7,64.7,53.3,37.4,57.6,49.0,32.0,94,86,68,30.04,29.66,8,2,16,0.13
2013-11-8,47.0,38.8,31.7,33.9,27.7,22.6,86,65,52,30.09,29.81,12,3,18,0.00
2013-11-9,45.3,37.5,29.6,29.9,24.8,20.9,77,61,39,30.21,30.03,9,1,16,0.00
2013-11-10,53.4,43.6,37.9,43.8,36.1,29.0,96,76,56,30.03,29.74,13,1,23,0.05
2013-11-11,51.5,44.1,37.9,32.7,29.1,25.8,71,56,38,30.10,29.85,10,2,17,0.00
2013-11-12,48.5,35.1,26.9,39.3,25.4,16.2,93,68,54,30.19,29.88,10,2,23,0.12
2013-11-13,35.7,27.3,21.1,17.4,15.6,11.5,80,62,37,30.29,30.16,8,2,14,0.00
2013-11-14,50.3,37.2,26.9,26.8,22.1,16.7,76,56,34,30.15,30.03,11,1,17,0.00
2013-11-15,60.7,43.8,28.0,31.0,23.0,15.2,81,48,17,30.19,30.10,6,1,12,0.00
2013-11-16,60.4,44.0,33.1,34.9,29.7,25.1,80,61,28,30.32,30.18,5,0,8,0.00
2013-11-17,49.2,40.7,30.2,44.8,36.4,26.8,97,85,74,30.31,29.84,3,0,4,0.04
2013-11-18,64.3,55.8,45.6,60.4,47.0,31.8,99,74,47,29.84,29.52,15,2,18,0.29
2013-11-19,48.7,39.0,30.4,31.9,22.9,16.7,60,52,41,30.28,29.65,12,4,22,0.00
2013-11-20,40.9,31.2,22.4,17.4,15.7,12.8,75,54,32,30.63,30.28,6,2,12,0.00
2013-11-21,47.4,32.3,19.1,27.7,20.6,15.1,86,65,31,30.64,30.37,6,0,10,0.00
2013-11-22,44.7,41.0,35.6,43.9,38.8,27.5,98,92,72,30.37,29.81,1,0,2,0.19
2013-11-23,45.5,38.9,28.8,44.2,27.7,16.4,98,66,39,29.92,29.78,15,3,27,0.00
2013-11-24,28.9,23.7,19.3,17.8,4.6,-4.5,69,45,26,30.20,29.79,18,5,33,0.00
2013-11-25,32.5,24.2,15.3,16.8,3.1,-9.2,57,41,18,30.37,30.20,9,2,16,0.00
2013-11-26,38.9,33.8,30.3,32.7,22.9,15.0,96,66,49,30.34,30.05,5,1,12,0.12
2013-11-27,61.4,49.3,33.7,60.3,48.0,32.7,98,95,87,30.04,29.21,14,2,26,1.57
2013-11-28,37.0,30.2,22.3,33.6,17.5,6.7,88,60,37,30.43,29.45,18,4,27,0.00
2013-11-29,32.7,25.2,18.3,18.0,11.9,1.3,85,58,33,30.75,30.43,8,1,12,0.00
2013-11-30,32.7,23.4,14.3,22.3,14.5,8.9,82,69,52,30.80,30.43,6,0,8,0.00
2013-12-1,35.7,32.4,28.8,34.9,30.0,22.2,97,91,76,30.43,30.02,2,0,5,0.14
2013-12-2,39.7,37.2,35.3,38.1,36.0,34.5,97,95,93,30.02,29.92,2,0,6,0.00
2013-12-3,48.1,37.6,30.6,38.4,34.2,28.9,96,88,61,29.95,29.85,4,0,8,0.00
2013-12-4,41.7,33.1,26.5,32.8,28.1,24.8,95,83,57,30.20,29.95,6,0,10,0.00
2013-12-5,44.2,36.4,27.9,43.4,34.8,26.3,98,94,90,30.21,29.91,3,0,7,0.00
2013-12-6,54.8,47.0,33.7,54.1,43.9,30.0,98,89,55,30.16,29.85,3,0,10,0.33
2013-12-7,38.4,33.0,24.9,33.3,28.0,20.7,95,82,61,30.45,30.08,10,1,17,0.07
2013-12-8,30.6,27.2,19.9,22.5,19.0,15.9,90,71,57,30.60,30.45,3,0,5,0.00
2013-12-9,35.4,31.0,25.0,34.2,28.6,18.3,96,91,63,30.50,29.89,3,0,5,0.34
2013-12-10,34.8,31.2,24.4,32.8,28.1,15.8,96,89,64,30.00,29.78,8,1,14,0.01
2013-12-11,31.7,25.2,20.6,20.9,17.9,15.8,85,74,53,30.20,30.00,13,1,21,0.00
2013-12-12,25.1,20.2,13.8,18.3,8.3,0.3,84,62,35,30.27,30.06,10,1,21,0.00
2013-12-13,28.1,20.3,13.1,18.8,11.8,1.8,83,70,57,30.40,29.99,8,1,17,0.00
2013-12-14,18.4,13.1,8.8,16.3,4.0,-3.7,92,68,51,30.62,30.17,5,1,8,0.20
2013-12-15,32.4,23.3,17.7,31.4,21.3,15.5,97,92,88,30.17,29.44,6,1,12,0.83
2013-12-16,27.3,22.5,15.0,20.2,12.3,6.5,91,66,43,30.20,29.74,13,3,24,0.00
2013-12-17,17.4,11.2,0.0,15.1,6.6,-3.9,91,82,61,30.29,29.97,5,0,7,0.33
2013-12-18,34.6,24.5,14.6,22.7,18.8,11.7,89,79,56,30.07,29.88,9,1,20,0.01
2013-12-19,42.0,32.1,24.8,26.5,23.6,19.8,82,71,49,30.11,29.95,12,1,20,0.00
2013-12-20,53.9,40.7,29.8,36.2,31.3,25.3,84,70,51,30.12,29.90,7,0,12,0.00
2013-12-21,57.6,47.2,38.0,47.5,41.1,33.4,90,80,65,29.96,29.85,5,1,10,0.00
2013-12-22,51.1,39.3,33.2,50.3,38.3,32.3,98,96,90,30.03,29.80,6,0,10,0.03
2013-12-23,37.3,33.3,31.5,36.4,32.5,30.7,97,97,95,30.10,29.97,3,0,6,0.47
2013-12-24,37.0,33.0,32.4,35.7,26.1,24.7,95,76,73,30.14,30.08,4,0,8,0.00
2013-12-25,32.4,32.2,14.9,24.7,24.5,9.2,78,73,73,30.51,30.12,0,0,17,0.00
2013-12-26,29.7,22.2,15.3,26.6,18.0,9.2,93,84,74,30.51,30.09,2,0,4,0.08
2013-12-27,32.4,25.5,17.7,22.3,19.7,15.0,93,79,64,30.27,30.19,11,1,15,0.00
2013-12-28,46.2,31.7,20.2,29.3,24.6,17.7,91,76,49,30.22,29.99,10,1,16,0.00
2013-12-29,41.4,35.1,28.3,36.8,31.1,24.8,96,85,68,30.03,29.43,6,0,14,1.10
2013-12-30,41.6,32.3,17.1,36.0,24.0,8.3,96,73,45,30.17,29.52,12,2,20,0.00
2013-12-31,25.6,17.8,12.4,14.8,6.1,-2.6,82,60,44,30.18,30.02,6,1,12,0.00
2014-1-1,26.1,20.3,11.6,13.4,9.0,5.7,79,62,45,30.39,30.19,10,1,16,0.00
2014-1-2,20.0,11.8,0.6,15.6,8.1,-2.9,87,85,74,30.37,29.88,6,1,14,0.03